Time;durP1;ratioP1;P1;durP2;ratioP2;P2;SDS_P1;SDS_P2;PMS_P1;PMS_P2;Temp;Humidity;BMP_temperature;BMP_pressure;BME280_temperature;BME280_humidity;BME280_pressure;Samples;Min_cycle;Max_cycle;Signal;HPM_P1;HPM_P2
2020/12/10 00:00:10;;;;;;;2.20;1.95;;;9.90;78.60;;;;;;5105791;28;20089;-48
2020/12/10 00:02:36;;;;;;;2.10;1.90;;;9.90;78.60;;;;;;5102099;28;20055;-49
2020/12/10 00:05:03;;;;;;;2.03;1.83;;;9.90;78.70;;;;;;5096806;28;20845;-48
2020/12/10 00:07:29;;;;;;;2.25;2.05;;;9.90;78.70;;;;;;5096117;28;20058;-47
2020/12/10 00:09:55;;;;;;;2.88;1.80;;;9.90;78.60;;;;;;5097557;28;20134;-48
2020/12/10 00:12:22;;;;;;;2.10;1.80;;;9.90;78.80;;;;;;5098823;28;20024;-48
2020/12/10 00:14:53;;;;;;;3.33;2.20;;;9.90;78.70;;;;;;5097478;28;20450;-48
2020/12/10 00:17:27;;;;;;;2.20;2.00;;;9.90;78.60;;;;;;5117956;27;20697;-48
2020/12/10 00:19:53;;;;;;;2.50;2.08;;;9.90;78.60;;;;;;5127089;27;20054;-48
2020/12/10 00:22:19;;;;;;;1.58;1.48;;;9.90;78.80;;;;;;5109430;27;20043;-49
2020/12/10 00:24:47;;;;;;;2.07;1.90;;;9.90;78.70;;;;;;5124953;27;20041;-48
2020/12/10 00:27:15;;;;;;;3.00;2.03;;;9.90;78.70;;;;;;5128654;27;20513;-48
2020/12/10 00:29:41;;;;;;;2.38;2.10;;;9.90;78.70;;;;;;5123736;27;20068;-47
2020/12/10 00:32:11;;;;;;;2.40;2.15;;;9.90;78.70;;;;;;5124748;27;20027;-48
2020/12/10 00:34:37;;;;;;;1.73;1.63;;;9.90;78.60;;;;;;5107341;28;20031;-47
2020/12/10 00:37:03;;;;;;;2.50;2.30;;;9.90;78.60;;;;;;5125185;28;20030;-48
2020/12/10 00:39:29;;;;;;;2.20;2.00;;;9.90;78.60;;;;;;5125468;28;20032;-47
2020/12/10 00:41:55;;;;;;;2.20;2.00;;;9.90;78.60;;;;;;5124230;28;20062;-47
2020/12/10 00:44:21;;;;;;;2.30;2.08;;;9.90;78.50;;;;;;5125220;28;20023;-47
2020/12/10 00:46:47;;;;;;;2.63;1.90;;;9.80;78.40;;;;;;5125189;28;20024;-48
2020/12/10 00:49:14;;;;;;;2.47;2.08;;;9.80;78.30;;;;;;5130117;27;20038;-47
2020/12/10 00:51:40;;;;;;;2.67;2.20;;;9.80;78.30;;;;;;5145418;27;20048;-47
2020/12/10 00:54:06;;;;;;;2.30;1.98;;;9.80;78.30;;;;;;5142131;27;20049;-47
2020/12/10 00:56:35;;;;;;;1.85;1.70;;;9.80;78.20;;;;;;5125004;28;20023;-47
2020/12/10 00:59:01;;;;;;;2.15;1.80;;;9.80;78.20;;;;;;5106879;28;20028;-47
2020/12/10 01:01:28;;;;;;;2.43;2.20;;;9.80;78.20;;;;;;5124770;28;20038;-47
2020/12/10 01:03:54;;;;;;;2.30;2.10;;;9.80;78.30;;;;;;5129123;27;20038;-47
2020/12/10 01:06:20;;;;;;;2.05;1.85;;;9.80;78.20;;;;;;5128815;27;20019;-48
2020/12/10 01:08:46;;;;;;;2.38;2.17;;;9.80;78.30;;;;;;5123497;27;20103;-48
2020/12/10 01:11:12;;;;;;;2.28;2.08;;;9.80;78.20;;;;;;5101678;28;20022;-49
2020/12/10 01:13:38;;;;;;;2.83;2.00;;;9.80;78.20;;;;;;5122466;27;20051;-48
2020/12/10 01:16:05;;;;;;;2.40;2.20;;;9.80;78.20;;;;;;5127340;27;20052;-47
2020/12/10 01:18:31;;;;;;;2.78;2.00;;;9.80;78.30;;;;;;5124075;27;20020;-48
2020/12/10 01:20:57;;;;;;;2.22;2.03;;;9.80;78.30;;;;;;5121653;27;20044;-47
2020/12/10 01:23:23;;;;;;;3.55;2.08;;;9.80;78.30;;;;;;5129515;27;20031;-48
2020/12/10 01:25:49;;;;;;;3.00;2.30;;;9.70;78.20;;;;;;5126157;27;20028;-48
2020/12/10 01:28:15;;;;;;;2.72;2.20;;;9.70;78.20;;;;;;5136408;27;20031;-47
2020/12/10 01:30:41;;;;;;;1.80;1.70;;;9.70;78.20;;;;;;5127325;27;20027;-48
2020/12/10 01:33:08;;;;;;;2.22;1.90;;;9.70;78.20;;;;;;5107997;27;20024;-49
2020/12/10 01:35:34;;;;;;;2.72;2.10;;;9.70;78.20;;;;;;5103760;28;20028;-47
2020/12/10 01:38:00;;;;;;;2.20;2.00;;;9.70;78.20;;;;;;5103740;28;20028;-47
2020/12/10 01:40:26;;;;;;;3.08;2.20;;;9.70;78.30;;;;;;5085419;28;20080;-47
2020/12/10 01:42:52;;;;;;;3.00;2.15;;;9.70;78.20;;;;;;5103421;28;20165;-47
2020/12/10 01:45:18;;;;;;;2.25;2.00;;;9.70;78.20;;;;;;5107733;27;20019;-47
2020/12/10 01:47:44;;;;;;;2.33;2.00;;;9.70;78.30;;;;;;5123923;28;20032;-48
2020/12/10 01:50:10;;;;;;;2.17;1.95;;;9.70;78.30;;;;;;5139296;27;20034;-47
2020/12/10 01:52:37;;;;;;;2.67;2.25;;;9.60;78.30;;;;;;5144203;27;20023;-48
2020/12/10 01:55:03;;;;;;;2.33;1.98;;;9.60;78.20;;;;;;5143009;27;20819;-48
2020/12/10 01:57:29;;;;;;;1.83;1.60;;;9.60;78.20;;;;;;5114969;27;20587;-47
2020/12/10 01:59:55;;;;;;;2.20;2.00;;;9.60;78.20;;;;;;5103380;28;20035;-48
2020/12/10 02:02:23;;;;;;;2.78;2.40;;;9.60;78.20;;;;;;5114864;27;20035;-47
2020/12/10 02:04:49;;;;;;;2.95;2.22;;;9.60;78.20;;;;;;5124968;27;20039;-47
2020/12/10 02:07:16;;;;;;;2.40;2.17;;;9.60;78.20;;;;;;5125356;27;21236;-48
2020/12/10 02:09:42;;;;;;;2.40;2.20;;;9.60;78.20;;;;;;5124811;27;20027;-47
2020/12/10 02:12:09;;;;;;;2.38;2.15;;;9.60;78.20;;;;;;5124406;27;20046;-47
2020/12/10 02:14:37;;;;;;;1.92;1.50;;;9.60;78.20;;;;;;5122446;27;20146;-48
2020/12/10 02:17:06;;;;;;;2.55;2.17;;;9.60;78.30;;;;;;5128865;27;20043;-52
2020/12/10 02:19:33;;;;;;;2.63;2.28;;;9.50;78.10;;;;;;5123662;27;20035;-47
2020/12/10 02:21:59;;;;;;;2.83;2.30;;;9.50;78.20;;;;;;5124907;27;20111;-47
2020/12/10 02:24:25;;;;;;;3.20;2.40;;;9.50;78.20;;;;;;5126843;27;20109;-48
2020/12/10 02:26:52;;;;;;;2.72;2.20;;;9.50;78.20;;;;;;5127281;27;20038;-47
2020/12/10 02:29:19;;;;;;;2.70;2.50;;;9.50;78.20;;;;;;5123190;27;20027;-48
2020/12/10 02:31:46;;;;;;;2.40;2.00;;;9.50;78.20;;;;;;5121813;27;20497;-48
2020/12/10 02:34:12;;;;;;;2.45;2.25;;;9.50;78.20;;;;;;5123121;28;20511;-47
2020/12/10 02:36:38;;;;;;;2.72;2.28;;;9.50;78.20;;;;;;5123091;28;20072;-48
2020/12/10 02:39:05;;;;;;;2.72;2.45;;;9.50;78.90;;;;;;5123023;28;20027;-48
2020/12/10 02:41:32;;;;;;;2.40;2.10;;;9.50;78.20;;;;;;5104979;28;20035;-47
2020/12/10 02:43:58;;;;;;;3.10;2.53;;;9.40;78.20;;;;;;5103484;28;20035;-47
2020/12/10 02:46:24;;;;;;;2.78;2.42;;;9.40;78.10;;;;;;5123120;28;20836;-48
2020/12/10 02:48:50;;;;;;;2.97;2.47;;;9.40;78.10;;;;;;5124840;28;20031;-47
2020/12/10 02:51:17;;;;;;;2.80;2.42;;;9.40;78.20;;;;;;5143579;28;20512;-47
2020/12/10 02:53:43;;;;;;;3.28;2.25;;;9.40;78.20;;;;;;5143205;28;20052;-47
2020/12/10 02:56:10;;;;;;;2.50;2.20;;;9.40;78.10;;;;;;5124482;28;20036;-47
2020/12/10 02:58:37;;;;;;;3.55;2.60;;;9.40;78.20;;;;;;5143643;28;20022;-47
2020/12/10 03:01:04;;;;;;;;;;;9.40;78.20;;;;;;5144158;28;20035;-49
2020/12/10 03:03:30;;;;;;;3.00;2.20;;;9.40;78.20;;;;;;5124165;28;19954;-47
2020/12/10 03:05:56;;;;;;;2.88;2.33;;;9.40;78.20;;;;;;5129299;28;20028;-47
2020/12/10 03:08:22;;;;;;;2.47;2.05;;;9.40;78.20;;;;;;5124595;28;20129;-47
2020/12/10 03:10:49;;;;;;;2.67;2.20;;;9.40;78.30;;;;;;5122193;28;20024;-47
2020/12/10 03:13:18;;;;;;;2.28;1.92;;;9.30;78.20;;;;;;5127367;28;20024;-48
2020/12/10 03:15:44;;;;;;;2.88;2.58;;;9.30;78.20;;;;;;5106081;28;20031;-47
2020/12/10 03:18:10;;;;;;;2.60;2.40;;;9.30;78.20;;;;;;5118710;28;20027;-48
2020/12/10 03:20:37;;;;;;;3.88;2.63;;;9.30;78.20;;;;;;5126674;28;20042;-49
2020/12/10 03:23:03;;;;;;;2.47;2.25;;;9.30;78.20;;;;;;5126880;28;20063;-47
2020/12/10 03:25:30;;;;;;;3.70;2.72;;;9.30;78.20;;;;;;5100552;28;20028;-47
2020/12/10 03:27:56;;;;;;;2.90;2.60;;;9.30;78.30;;;;;;5103773;28;20042;-48
2020/12/10 03:30:22;;;;;;;2.95;2.33;;;9.30;78.20;;;;;;5123509;28;20023;-47
2020/12/10 03:32:48;;;;;;;3.45;2.42;;;9.30;78.30;;;;;;5122650;28;20061;-47
2020/12/10 03:35:15;;;;;;;2.83;2.47;;;9.30;78.20;;;;;;5104230;28;20016;-48
2020/12/10 03:37:42;;;;;;;3.15;2.85;;;9.30;78.30;;;;;;5122453;28;20035;-47
2020/12/10 03:40:08;;;;;;;2.63;2.30;;;9.30;78.20;;;;;;5104239;28;20031;-47
2020/12/10 03:42:34;;;;;;;3.00;2.70;;;9.20;78.20;;;;;;5114998;28;20097;-47
2020/12/10 03:45:00;;;;;;;3.63;2.38;;;9.30;78.30;;;;;;5122460;28;20051;-48
2020/12/10 03:47:26;;;;;;;2.92;2.42;;;9.20;78.20;;;;;;5122634;28;20035;-47
2020/12/10 03:49:53;;;;;;;2.95;2.65;;;9.20;78.30;;;;;;5131886;28;20566;-47
2020/12/10 03:52:19;;;;;;;2.78;2.53;;;9.20;78.30;;;;;;5124866;28;20091;-47
2020/12/10 03:54:45;;;;;;;2.90;2.30;;;9.20;78.30;;;;;;5122842;28;20167;-47
2020/12/10 03:57:11;;;;;;;2.40;2.20;;;9.20;78.20;;;;;;5126079;28;20020;-48
2020/12/10 03:59:37;;;;;;;3.50;2.67;;;9.20;78.30;;;;;;5132045;27;20031;-47
2020/12/10 04:02:03;;;;;;;3.13;2.63;;;9.20;78.30;;;;;;5144470;27;20091;-48
2020/12/10 04:04:30;;;;;;;3.47;2.60;;;9.20;78.30;;;;;;5105196;27;20100;-48
2020/12/10 04:06:56;;;;;;;2.50;2.30;;;9.20;78.30;;;;;;5129989;27;20057;-47
2020/12/10 04:09:22;;;;;;;4.50;2.50;;;9.10;78.90;;;;;;5131175;27;20029;-47
2020/12/10 04:11:48;;;;;;;2.90;2.60;;;9.10;78.20;;;;;;5132433;27;20039;-47
2020/12/10 04:14:14;;;;;;;2.88;2.58;;;9.10;78.20;;;;;;5128742;27;20047;-48
2020/12/10 04:16:40;;;;;;;3.15;2.85;;;9.10;78.20;;;;;;5106557;27;20067;-47
2020/12/10 04:19:07;;;;;;;3.90;2.83;;;9.10;78.20;;;;;;5128316;27;20036;-48
2020/12/10 04:21:33;;;;;;;2.67;2.35;;;9.10;78.20;;;;;;5125752;27;20084;-47
2020/12/10 04:23:59;;;;;;;2.90;2.60;;;9.10;78.30;;;;;;5128459;27;20039;-47
2020/12/10 04:26:25;;;;;;;3.00;2.70;;;9.10;78.30;;;;;;5105948;27;20092;-48
2020/12/10 04:28:51;;;;;;;3.08;2.60;;;9.10;78.20;;;;;;5130451;27;20027;-47
2020/12/10 04:31:18;;;;;;;2.72;2.42;;;9.00;78.20;;;;;;5122794;27;20118;-48
2020/12/10 04:33:44;;;;;;;3.05;2.75;;;9.10;78.30;;;;;;5126529;27;20081;-48
2020/12/10 04:36:10;;;;;;;3.28;2.55;;;9.10;78.20;;;;;;5124561;28;20042;-47
2020/12/10 04:38:36;;;;;;;2.55;2.35;;;9.00;78.20;;;;;;5125543;28;20826;-48
2020/12/10 04:41:03;;;;;;;2.50;2.30;;;9.00;78.20;;;;;;5125119;28;20038;-48
2020/12/10 04:43:29;;;;;;;3.97;2.65;;;9.00;78.30;;;;;;5107202;28;20040;-47
2020/12/10 04:45:59;;;;;;;2.90;2.58;;;9.00;78.30;;;;;;5125224;28;20054;-48
2020/12/10 04:48:30;;;;;;;2.70;2.38;;;9.00;78.30;;;;;;5094194;28;20099;-47
2020/12/10 04:50:57;;;;;;;2.88;2.50;;;9.00;78.30;;;;;;5143616;27;20019;-47
2020/12/10 04:53:27;;;;;;;3.17;2.88;;;9.00;78.30;;;;;;5145612;27;20023;-47
2020/12/10 04:55:55;;;;;;;2.92;2.55;;;9.00;78.30;;;;;;5126604;27;20550;-47
2020/12/10 04:58:21;;;;;;;3.95;2.97;;;9.00;78.30;;;;;;5125236;28;20132;-48
2020/12/10 05:00:55;;;;;;;3.28;2.88;;;9.00;78.40;;;;;;5125162;28;20035;-48
2020/12/10 05:03:22;;;;;;;3.13;2.72;;;9.00;78.30;;;;;;5126714;27;20043;-47
2020/12/10 05:05:48;;;;;;;3.20;2.50;;;8.90;78.30;;;;;;5105368;27;20024;-49
2020/12/10 05:08:14;;;;;;;2.97;2.28;;;8.90;78.20;;;;;;5131541;27;20267;-47
2020/12/10 05:10:44;;;;;;;2.70;2.50;;;8.90;78.30;;;;;;5104019;27;20052;-47
2020/12/10 05:13:12;;;;;;;3.85;2.78;;;8.90;78.30;;;;;;5126420;27;20055;-48
2020/12/10 05:15:40;;;;;;;3.05;2.63;;;8.90;78.30;;;;;;5109074;27;20098;-47
2020/12/10 05:18:10;;;;;;;2.85;2.55;;;8.90;78.30;;;;;;5126449;27;20140;-48
2020/12/10 05:20:50;;;;;;;2.70;2.50;;;8.90;78.30;;;;;;5128029;27;20060;-49
2020/12/10 05:23:40;;;;;;;3.53;2.72;;;8.90;78.30;;;;;;5126741;27;20050;-48
2020/12/10 05:26:08;;;;;;;3.20;2.90;;;8.90;78.30;;;;;;5127114;27;20024;-48
2020/12/10 05:28:40;;;;;;;;;;;8.90;78.40;;;;;;5126937;27;20051;-47
2020/12/10 05:31:07;;;;;;;3.25;2.78;;;8.80;78.30;;;;;;5124862;27;19952;-49
2020/12/10 05:33:34;;;;;;;3.55;2.80;;;8.80;78.30;;;;;;5122722;27;20537;-48
2020/12/10 05:36:10;;;;;;;2.30;2.08;;;8.80;78.30;;;;;;5124205;28;20038;-47
2020/12/10 05:39:08;;;;;;;5.05;3.13;;;8.80;78.40;;;;;;5124148;28;20026;-47
2020/12/10 05:41:39;;;;;;;2.63;2.38;;;8.80;78.30;;;;;;5124225;28;20038;-48
2020/12/10 05:44:22;;;;;;;3.55;2.50;;;8.80;78.40;;;;;;5124407;28;20587;-47
2020/12/10 05:46:51;;;;;;;3.47;2.83;;;8.80;78.40;;;;;;5123808;28;20050;-48
2020/12/10 05:49:17;;;;;;;3.78;2.80;;;8.80;78.40;;;;;;5129396;27;20029;-48
2020/12/10 05:51:48;;;;;;;3.90;3.17;;;8.80;78.30;;;;;;5110957;28;20046;-47
2020/12/10 05:54:16;;;;;;;4.95;2.70;;;8.80;78.30;;;;;;5119370;28;20107;-47
2020/12/10 05:56:54;;;;;;;3.40;2.78;;;8.80;78.40;;;;;;5103249;28;20024;-47
2020/12/10 05:59:24;;;;;;;3.80;3.08;;;8.80;78.40;;;;;;5103548;28;20111;-47
2020/12/10 06:01:50;;;;;;;4.13;2.65;;;8.70;78.40;;;;;;5105528;27;20030;-47
2020/12/10 06:04:16;;;;;;;3.28;2.72;;;8.70;78.40;;;;;;5122391;27;20040;-48
2020/12/10 06:06:43;;;;;;;3.55;2.88;;;8.70;78.40;;;;;;5118174;27;20025;-49
2020/12/10 06:09:09;;;;;;;4.18;3.10;;;8.70;78.40;;;;;;5101794;27;20031;-47
2020/12/10 06:11:37;;;;;;;3.08;2.78;;;8.70;78.40;;;;;;5125812;27;20044;-48
2020/12/10 06:14:05;;;;;;;3.80;2.85;;;8.70;78.40;;;;;;5105543;27;20088;-47
2020/12/10 06:16:34;;;;;;;3.10;2.80;;;8.70;78.40;;;;;;5102044;27;20042;-48
2020/12/10 06:19:10;;;;;;;4.35;3.10;;;8.70;78.40;;;;;;5120493;27;20087;-48
2020/12/10 06:21:45;;;;;;;3.70;3.05;;;8.70;78.40;;;;;;5123190;27;20047;-48
2020/12/10 06:24:27;;;;;;;3.60;2.80;;;8.70;78.40;;;;;;5125996;27;20031;-48
2020/12/10 06:26:56;;;;;;;3.17;2.80;;;8.70;78.40;;;;;;5124751;27;20050;-48
2020/12/10 06:29:26;;;;;;;3.45;3.10;;;8.70;78.50;;;;;;5128636;27;20132;-47
2020/12/10 06:32:11;;;;;;;3.35;2.80;;;8.60;78.40;;;;;;5123586;27;20024;-48
2020/12/10 06:34:42;;;;;;;3.75;3.00;;;8.60;78.40;;;;;;5123458;28;20047;-47
2020/12/10 06:37:18;;;;;;;3.83;2.83;;;8.60;78.40;;;;;;5122812;28;20023;-47
2020/12/10 06:39:44;;;;;;;3.40;2.95;;;8.60;78.40;;;;;;5123363;28;20019;-47
2020/12/10 06:42:11;;;;;;;3.13;2.65;;;8.60;78.40;;;;;;5123106;28;20038;-47
2020/12/10 06:44:37;;;;;;;4.55;3.35;;;8.60;78.40;;;;;;5123200;28;20027;-48
2020/12/10 06:47:04;;;;;;;3.53;3.07;;;8.60;78.50;;;;;;5104819;28;20024;-47
2020/12/10 06:49:31;;;;;;;4.65;2.88;;;8.60;78.40;;;;;;5104837;28;20392;-47
2020/12/10 06:52:11;;;;;;;4.13;3.10;;;8.50;78.40;;;;;;5104526;28;20063;-48
2020/12/10 06:55:03;;;;;;;3.50;2.78;;;8.60;78.40;;;;;;5115228;28;20107;-48
2020/12/10 06:57:52;;;;;;;3.85;2.75;;;8.50;78.40;;;;;;5102412;28;20092;-48
2020/12/10 07:00:39;;;;;;;3.90;2.95;;;8.50;78.40;;;;;;5102695;28;20028;-47
2020/12/10 07:03:10;;;;;;;3.47;2.83;;;8.50;78.40;;;;;;5119241;28;20072;-47
2020/12/10 07:05:38;;;;;;;3.50;3.10;;;8.50;78.40;;;;;;5123155;28;20075;-48
2020/12/10 07:08:08;;;;;;;4.07;3.15;;;8.50;79.20;;;;;;5103129;28;20027;-47
2020/12/10 07:10:54;;;;;;;4.55;2.83;;;8.50;78.40;;;;;;5117368;28;20035;-47
2020/12/10 07:13:31;;;;;;;3.47;2.92;;;8.50;78.40;;;;;;5104423;28;20027;-47
2020/12/10 07:15:57;;;;;;;4.20;3.10;;;8.50;78.50;;;;;;5122585;28;20067;-48
2020/12/10 07:18:27;;;;;;;2.80;2.55;;;8.40;78.40;;;;;;5121824;28;20034;-47
2020/12/10 07:20:53;;;;;;;3.42;3.08;;;8.50;78.40;;;;;;5132707;27;20027;-47
2020/12/10 07:23:19;;;;;;;3.75;3.17;;;8.50;78.50;;;;;;5119051;28;20040;-48
2020/12/10 07:25:45;;;;;;;4.95;3.25;;;8.40;78.40;;;;;;5121239;28;20061;-47
2020/12/10 07:28:11;;;;;;;3.22;2.85;;;8.40;78.50;;;;;;5126824;28;20057;-47
2020/12/10 07:30:37;;;;;;;4.63;2.92;;;8.40;78.40;;;;;;5125542;27;20067;-47
2020/12/10 07:33:10;;;;;;;4.90;3.15;;;8.40;78.50;;;;;;5106929;28;20023;-47
2020/12/10 07:35:40;;;;;;;3.35;2.90;;;8.40;78.50;;;;;;5108481;28;20024;-48
2020/12/10 07:38:13;;;;;;;3.35;2.90;;;8.40;78.50;;;;;;5126069;28;20036;-47
2020/12/10 07:40:40;;;;;;;3.33;2.90;;;8.40;78.50;;;;;;5126631;28;20036;-47
2020/12/10 07:43:07;;;;;;;3.85;3.42;;;8.40;78.50;;;;;;5125680;28;20404;-47
2020/12/10 07:45:35;;;;;;;4.70;2.97;;;8.40;78.50;;;;;;5107464;28;20508;-47
2020/12/10 07:48:02;;;;;;;4.75;3.03;;;8.40;78.50;;;;;;5107575;28;20083;-47
2020/12/10 07:50:30;;;;;;;4.18;2.95;;;8.40;78.50;;;;;;5142201;27;20042;-50
2020/12/10 07:53:03;;;;;;;3.40;2.90;;;8.40;78.50;;;;;;5104869;28;20043;-48
2020/12/10 07:55:30;;;;;;;3.67;2.83;;;8.30;78.50;;;;;;5121378;28;20114;-47
2020/12/10 07:58:14;;;;;;;3.22;2.90;;;8.30;78.60;;;;;;5107664;28;20045;-47
2020/12/10 08:00:41;;;;;;;3.55;3.20;;;8.30;78.60;;;;;;5126135;28;20031;-48
2020/12/10 08:03:50;;;;;;;3.95;3.28;;;8.30;78.60;;;;;;5123966;28;20090;-48
2020/12/10 08:06:16;;;;;;;3.47;3.13;;;8.30;78.60;;;;;;5104165;28;20032;-47
2020/12/10 08:08:48;;;;;;;4.50;3.05;;;8.30;78.60;;;;;;5125839;28;20099;-48
2020/12/10 08:11:19;;;;;;;4.72;3.17;;;8.30;78.60;;;;;;5126041;28;20028;-47
2020/12/10 08:14:05;;;;;;;3.65;3.10;;;8.30;78.60;;;;;;5142584;27;20031;-47
2020/12/10 08:16:45;;;;;;;3.88;3.22;;;8.30;78.60;;;;;;5146333;27;20043;-47
2020/12/10 08:19:32;;;;;;;4.00;3.60;;;8.30;78.60;;;;;;5141104;27;20031;-48
2020/12/10 08:21:59;;;;;;;4.10;3.15;;;8.30;78.60;;;;;;5107714;28;20028;-47
2020/12/10 08:24:34;;;;;;;5.03;3.67;;;8.20;78.50;;;;;;5107316;28;20063;-47
2020/12/10 08:27:01;;;;;;;4.43;3.50;;;8.20;78.50;;;;;;5125955;28;20107;-47
2020/12/10 08:29:27;;;;;;;4.43;3.20;;;8.20;78.50;;;;;;5125605;28;20102;-49
2020/12/10 08:32:07;;;;;;;4.18;3.63;;;8.20;78.50;;;;;;5131653;27;20037;-47
2020/12/10 08:34:34;;;;;;;3.85;3.00;;;8.20;78.60;;;;;;5146057;27;20027;-48
2020/12/10 08:37:05;;;;;;;4.28;3.55;;;8.20;78.60;;;;;;5126834;27;20061;-48
2020/12/10 08:39:33;;;;;;;3.65;3.20;;;8.20;78.60;;;;;;5127664;27;20027;-49
2020/12/10 08:42:00;;;;;;;;;;;8.20;78.60;;;;;;5128050;27;20031;-48
2020/12/10 08:44:26;;;;;;;4.75;3.10;;;8.20;78.70;;;;;;5146217;27;20322;-48
2020/12/10 08:47:01;;;;;;;4.18;3.35;;;8.20;78.60;;;;;;5145927;27;20023;-48
2020/12/10 08:49:27;;;;;;;4.55;3.58;;;8.10;78.60;;;;;;5118544;28;20118;-48
2020/12/10 08:51:53;;;;;;;4.57;3.15;;;8.10;78.60;;;;;;5124604;28;20047;-47
2020/12/10 08:54:19;;;;;;;4.32;3.40;;;8.10;78.60;;;;;;5125082;28;20028;-47
2020/12/10 08:56:46;;;;;;;3.92;3.30;;;8.10;78.60;;;;;;5124994;28;20087;-48
2020/12/10 08:59:13;;;;;;;;;;;8.10;78.60;;;;;;5124549;28;20097;-47
2020/12/10 09:01:51;;;;;;;3.42;3.00;;;8.10;78.70;;;;;;5107985;27;19951;-47
2020/12/10 09:04:17;;;;;;;4.03;2.92;;;8.10;78.70;;;;;;5127135;27;20043;-48
2020/12/10 09:06:44;;;;;;;4.95;3.22;;;8.10;78.70;;;;;;5145708;27;20030;-47
2020/12/10 09:09:10;;;;;;;4.70;3.35;;;8.10;78.70;;;;;;5145294;27;20030;-47
2020/12/10 09:11:36;;;;;;;4.10;3.28;;;8.10;78.70;;;;;;5145563;27;20031;-47
2020/12/10 09:14:06;;;;;;;3.92;3.22;;;8.10;78.70;;;;;;5145534;27;20023;-48
2020/12/10 09:16:36;;;;;;;3.92;3.50;;;8.10;78.70;;;;;;5145132;27;20058;-48
2020/12/10 09:19:03;;;;;;;4.72;3.15;;;8.00;78.60;;;;;;5139420;27;20046;-47
2020/12/10 09:21:49;;;;;;;3.85;3.00;;;8.00;78.70;;;;;;5126904;27;20027;-47
2020/12/10 09:24:15;;;;;;;4.88;3.38;;;8.00;78.60;;;;;;5138981;27;20047;-47
2020/12/10 09:26:42;;;;;;;3.65;2.47;;;8.00;78.70;;;;;;5124656;28;20027;-47
2020/12/10 09:29:29;;;;;;;4.22;3.33;;;8.00;78.70;;;;;;5124289;28;20023;-47
2020/12/10 09:31:56;;;;;;;4.78;3.65;;;8.00;78.70;;;;;;5124195;28;20408;-48
2020/12/10 09:34:22;;;;;;;3.63;2.80;;;8.00;78.70;;;;;;5123113;28;20065;-47
2020/12/10 09:36:49;;;;;;;4.18;3.40;;;8.00;78.80;;;;;;5124416;28;20078;-48
2020/12/10 09:39:16;;;;;;;3.95;3.22;;;8.00;78.80;;;;;;5133024;27;20030;-48
2020/12/10 09:41:43;;;;;;;4.43;3.35;;;8.00;78.80;;;;;;5126312;27;20039;-48
2020/12/10 09:44:11;;;;;;;6.38;3.50;;;8.00;78.80;;;;;;5144794;27;20042;-47
2020/12/10 09:46:37;;;;;;;4.22;3.25;;;7.90;78.60;;;;;;5126417;27;20057;-47
2020/12/10 09:49:03;;;;;;;4.95;3.50;;;7.90;78.80;;;;;;5141130;27;20538;-47
2020/12/10 09:51:37;;;;;;;4.50;3.20;;;7.90;78.70;;;;;;5125907;27;20027;-47
2020/12/10 09:54:19;;;;;;;4.13;3.58;;;7.90;78.70;;;;;;5140633;27;20035;-47
2020/12/10 09:59:26;;;;;;;5.13;3.65;;;7.90;78.80;;;;;;5103352;28;20027;-47
2020/12/10 10:01:57;;;;;;;4.78;3.20;;;7.90;78.80;;;;;;5089389;27;20047;-47
2020/12/10 10:04:25;;;;;;;3.88;3.33;;;7.90;78.80;;;;;;5126118;27;20038;-48
2020/12/10 10:06:51;;;;;;;4.55;3.47;;;7.90;78.80;;;;;;5104387;27;20039;-48
2020/12/10 10:09:17;;;;;;;3.63;3.20;;;7.90;78.80;;;;;;5127973;27;20038;-48
2020/12/10 10:11:50;;;;;;;5.07;3.80;;;7.90;78.80;;;;;;5123091;27;20026;-47
2020/12/10 10:14:16;;;;;;;5.45;3.60;;;7.80;78.80;;;;;;5094915;27;20056;-48
2020/12/10 10:16:48;;;;;;;4.15;3.13;;;7.90;78.70;;;;;;5101106;27;20054;-48
2020/12/10 10:19:18;;;;;;;4.50;3.40;;;7.90;78.80;;;;;;5125324;27;20037;-47
2020/12/10 10:21:44;;;;;;;3.33;2.80;;;7.90;78.80;;;;;;5129194;27;20016;-48
2020/12/10 10:24:10;;;;;;;4.18;3.00;;;7.80;78.80;;;;;;5125219;27;20095;-48
2020/12/10 10:26:36;;;;;;;4.10;3.22;;;7.80;78.80;;;;;;5120189;27;20019;-48
2020/12/10 10:29:06;;;;;;;4.28;3.50;;;7.80;78.80;;;;;;5126980;27;20023;-48
2020/12/10 10:31:32;;;;;;;4.35;3.53;;;7.80;78.80;;;;;;5122760;27;20031;-47
2020/12/10 10:34:01;;;;;;;4.13;3.63;;;7.80;78.80;;;;;;5135532;27;20031;-47
2020/12/10 10:36:30;;;;;;;5.30;3.42;;;7.80;78.80;;;;;;5122160;28;20039;-48
2020/12/10 10:38:58;;;;;;;4.47;3.35;;;7.80;78.80;;;;;;5122317;28;20397;-47
2020/12/10 10:41:48;;;;;;;4.90;3.67;;;7.80;78.80;;;;;;5122817;28;20031;-48
2020/12/10 10:44:15;;;;;;;3.50;2.92;;;7.80;78.80;;;;;;5123316;28;20036;-48
2020/12/10 10:47:01;;;;;;;3.72;2.65;;;7.80;78.80;;;;;;5123144;28;20028;-47
2020/12/10 10:49:27;;;;;;;4.00;3.42;;;7.80;78.90;;;;;;5124800;27;20054;-47
2020/12/10 10:51:59;;;;;;;4.13;3.30;;;7.70;78.80;;;;;;5114068;28;20030;-47
2020/12/10 10:54:27;;;;;;;4.20;3.17;;;7.70;78.80;;;;;;5098622;28;20061;-50
2020/12/10 10:56:54;;;;;;;4.45;3.38;;;7.70;78.80;;;;;;5099577;28;20055;-47
2020/12/10 10:59:21;;;;;;;4.82;3.45;;;7.70;78.80;;;;;;5102658;28;20036;-48
2020/12/10 11:01:48;;;;;;;4.47;3.45;;;7.70;78.80;;;;;;5113867;28;20129;-47
2020/12/10 11:04:14;;;;;;;4.53;3.77;;;7.70;78.80;;;;;;5104666;28;20030;-47
2020/12/10 11:06:42;;;;;;;4.25;3.50;;;7.70;78.80;;;;;;5126624;28;20027;-47
2020/12/10 11:09:08;;;;;;;3.80;3.40;;;7.70;78.80;;;;;;5108025;28;20044;-47
2020/12/10 11:11:41;;;;;;;5.35;3.97;;;7.70;78.90;;;;;;5126782;28;20019;-48
2020/12/10 11:14:32;;;;;;;4.43;3.58;;;7.70;78.90;;;;;;5092696;28;20129;-47
2020/12/10 11:17:18;;;;;;;5.15;3.85;;;7.70;78.90;;;;;;5126896;28;20101;-47
2020/12/10 11:19:44;;;;;;;4.15;3.33;;;7.60;78.90;;;;;;5136187;27;20023;-47
2020/12/10 11:22:10;;;;;;;4.22;3.60;;;7.60;78.90;;;;;;5147368;27;20060;-47
2020/12/10 11:24:36;;;;;;;4.28;3.45;;;7.60;78.90;;;;;;5139414;27;20042;-48
2020/12/10 11:27:06;;;;;;;5.20;3.70;;;7.60;78.90;;;;;;5127059;28;20035;-47
2020/12/10 11:29:39;;;;;;;4.90;3.60;;;7.60;79.00;;;;;;5127020;28;20028;-47
2020/12/10 11:32:06;;;;;;;3.78;3.25;;;7.60;78.90;;;;;;5113989;27;20030;-48
2020/12/10 11:34:32;;;;;;;4.05;3.55;;;7.60;79.00;;;;;;5129196;27;20041;-47
2020/12/10 11:37:00;;;;;;;3.83;3.25;;;7.60;78.90;;;;;;5128795;27;20042;-47
2020/12/10 11:39:26;;;;;;;5.55;3.85;;;7.60;78.90;;;;;;5143938;27;20027;-47
2020/12/10 11:41:52;;;;;;;4.25;3.42;;;7.60;79.00;;;;;;5147053;27;20027;-48
2020/12/10 11:44:20;;;;;;;4.10;3.37;;;7.60;79.00;;;;;;5140027;27;20080;-48
2020/12/10 11:46:52;;;;;;;5.53;3.30;;;7.60;79.00;;;;;;5125430;28;20087;-48
2020/12/10 11:49:20;;;;;;;4.47;3.55;;;7.60;79.00;;;;;;5125419;28;20035;-47
2020/12/10 11:51:46;;;;;;;4.47;3.45;;;7.50;78.90;;;;;;5123095;28;20036;-48
2020/12/10 11:54:12;;;;;;;5.20;3.78;;;7.50;79.30;;;;;;5126392;28;20030;-47
2020/12/10 11:56:39;;;;;;;6.07;3.17;;;7.50;78.90;;;;;;5126376;28;20070;-49
2020/12/10 11:59:05;;;;;;;5.10;3.53;;;7.50;78.90;;;;;;5108064;28;20027;-47
2020/12/10 12:01:31;;;;;;;4.85;3.45;;;7.50;78.90;;;;;;5125874;28;20030;-47
2020/12/10 12:03:58;;;;;;;4.43;3.38;;;7.50;79.00;;;;;;5146583;27;20043;-48
2020/12/10 12:06:26;;;;;;;5.25;3.55;;;7.50;79.00;;;;;;5146668;27;20029;-47
2020/12/10 12:09:10;;;;;;;5.07;3.50;;;7.50;79.00;;;;;;5146562;27;20023;-48
2020/12/10 12:11:36;;;;;;;5.40;3.45;;;7.50;79.00;;;;;;5143912;27;20049;-49
2020/12/10 12:14:03;;;;;;;3.80;3.40;;;7.50;79.00;;;;;;5146221;27;20114;-48
2020/12/10 12:16:29;;;;;;;4.32;3.35;;;7.50;79.00;;;;;;5146167;27;20051;-48
2020/12/10 12:18:56;;;;;;;4.30;3.40;;;7.50;79.00;;;;;;5144221;27;20026;-48
2020/12/10 12:21:26;;;;;;;4.28;3.40;;;7.50;79.00;;;;;;5125738;28;20050;-50
2020/12/10 12:23:53;;;;;;;5.45;3.58;;;7.40;79.00;;;;;;5124774;28;20502;-47
2020/12/10 12:26:48;;;;;;;5.10;3.25;;;7.40;79.00;;;;;;5090674;28;20103;-48
2020/12/10 12:29:14;;;;;;;4.40;3.60;;;7.40;79.00;;;;;;5125413;28;20097;-47
2020/12/10 12:31:40;;;;;;;5.22;3.88;;;7.40;79.00;;;;;;5125362;28;20057;-47
2020/12/10 12:34:07;;;;;;;6.95;3.53;;;7.40;79.00;;;;;;5126014;28;20536;-47
2020/12/10 12:36:33;;;;;;;3.38;2.63;;;7.40;79.10;;;;;;5125662;28;20099;-51
2020/12/10 12:39:31;;;;;;;3.63;3.30;;;7.40;79.10;;;;;;5125597;28;20044;-48
2020/12/10 12:41:57;;;;;;;4.88;3.38;;;7.40;79.10;;;;;;5121507;28;20050;-48
2020/12/10 12:44:29;;;;;;;4.78;3.35;;;7.40;79.10;;;;;;5125547;28;20114;-47
2020/12/10 12:46:58;;;;;;;5.32;3.55;;;7.40;79.10;;;;;;5106996;28;20036;-48
2020/12/10 12:49:25;;;;;;;4.72;3.20;;;7.30;79.10;;;;;;5131927;27;20027;-47
2020/12/10 12:51:54;;;;;;;4.22;3.30;;;7.30;79.10;;;;;;5145811;27;20023;-48
2020/12/10 12:54:26;;;;;;;4.75;3.83;;;7.30;79.10;;;;;;5121804;28;20043;-48
2020/12/10 12:56:53;;;;;;;5.28;3.67;;;7.30;79.10;;;;;;5125289;28;20039;-48
2020/12/10 12:59:20;;;;;;;4.60;3.40;;;7.30;79.10;;;;;;5125203;28;20039;-47
2020/12/10 13:01:49;;;;;;;4.93;3.33;;;7.30;79.20;;;;;;5088671;27;20272;-48
2020/12/10 13:04:21;;;;;;;4.57;3.42;;;7.30;79.10;;;;;;5126897;27;20134;-48
2020/12/10 13:06:48;;;;;;;4.47;3.50;;;7.30;79.20;;;;;;5135921;27;20106;-47
2020/12/10 13:09:14;;;;;;;4.53;3.60;;;7.30;79.10;;;;;;5124741;28;20039;-48